Terminal Aerodrome Forecast
Issued by NWS North Platte, NE

Home | Current Version | Previous Version | Graphics & Text | Print | Product List | Glossary On
Versions: 1 2 3 4 5 6 7 8 9 10 11 12 13
000
FTUS43 KLBF 201700
TAFVTN
TAF
KVTN 201740Z 2018/2118 VRB05KT P6SM SKC
     FM210000 16007KT P6SM BKN250
     FM210900 20007KT P6SM OVC250=

USA.gov is the U.S. government's official web portal to all federal, state and local government web resources and services.